Airfield :
LOGIN :

Register | Disclaimer

   EN    FR    IT 

 










Legend :    VFR   Marginal VFR   IFR   Intensive IFR   Very Intensive IFR
Visi :
Ceiling :
>= 8 km
>= 3000ft
5 to 8 km
1000 to 3000 ft
1500m to 5 km
500 to 1000 ft
800 to 1500m
200 to 500 ft
< 800m
< 200 ft
Symbols :   Thunderstorms  Fog  Heavy snow  Heavy precipitations  Wind > 20 kt
SIGMETs :     Misc.  Thunderstorms  Icing  Turbulence  Mountain Waves  Volcanic Ashes







- Airport Elevation : 404 ft
- IATA code : WRO


EPWR - Wroclaw

CURRENT METAR :
  • 170730Z 30013KT 5000 -RA BR FEW003 OVC004 17/17 Q1009 RERA

EXPIRED METARs :
  • 170700Z 29011KT 5000 RA BR SCT003 OVC004 17/17 Q1009
  • 170630Z 29010KT 9999 -RA BKN004 BKN008 17/17 Q1009
  • 170600Z 31008KT 3500 -SHRA SCT003 BKN018CB 17/16 Q1009 RESHRA
  • 170530Z 31011KT 9999 SCT025 BKN036 18/16 Q1009
  • 170500Z 30008KT 9999 BKN033 18/15 Q1009

TAF TAF EPWR
Valid from the 17 at 06:00 until the 18 at 06:00 UTC


170530Z 1706/1806 29010KT 9999 BKN030
TEMPO 1706/1806 4500 SHRA BKN013 BKN020CB
PROB40
TEMPO 1706/1806 2500 RA BR BKN009 BKN025
PROB30
TEMPO 1706/1709 BKN004 BKN025
PROB30
TEMPO 1710/1717 32016G32KT TSRA
PROB30 1800/1806 BKN004 OVC015
No reported NOTAMs for that airfield.



MET'MAP, your aeronautical weather chart ! - Copyright ORBIFLY December 2007 - Disclaimer

ORBIFLY MET'MAP TEAM :

Programming & Development : Alexandra Zaïnal
Concept & Development : Baudouin d'Aumeries
Co-Development & Prog : Marc-Olivier Méhu
Technical & hardware support : Manuel Goepfert

Contact : metmap@orbifly.com




SOURCES & CREDITS :

   NOAA